createdAt,value
2023-04-27T00:00:29.261Z,56.02
2023-04-27T00:03:51.931Z,55.42
2023-04-27T00:06:55.668Z,55.18
2023-04-27T00:09:59.525Z,55.98
2023-04-27T00:13:06.387Z,56.47
2023-04-27T00:16:10.793Z,55.66
2023-04-27T00:19:15.881Z,55.38
2023-04-27T00:22:21.256Z,55.10
2023-04-27T00:25:25.599Z,54.64
2023-04-27T00:28:31.590Z,55.32
2023-04-27T00:31:38.924Z,54.52
2023-04-27T00:34:42.898Z,55.00
2023-04-27T00:37:47.172Z,54.88
2023-04-27T00:40:51.893Z,54.73
2023-04-27T00:43:58.128Z,54.69
2023-04-27T00:47:04.236Z,56.02
2023-04-27T00:50:10.652Z,54.86
2023-04-27T00:53:15.887Z,55.81
2023-04-27T00:56:20.330Z,55.58
2023-04-27T00:59:27.558Z,55.21
2023-04-27T01:02:31.795Z,55.57
2023-04-27T01:05:37.536Z,55.11
2023-04-27T01:08:41.437Z,55.15
2023-04-27T01:11:46.228Z,55.34
2023-04-27T01:14:51.437Z,55.21
2023-04-27T01:17:59.777Z,56.25
2023-04-27T01:21:05.280Z,55.43
2023-04-27T01:24:11.711Z,55.35
2023-04-27T01:27:15.636Z,55.73
2023-04-27T01:30:20.886Z,55.79
2023-04-27T01:33:24.573Z,56.23
2023-04-27T01:36:29.331Z,56.20
2023-04-27T01:39:37.054Z,55.72
2023-04-27T01:42:40.987Z,56.66
2023-04-27T01:45:45.831Z,56.23
2023-04-27T01:48:49.936Z,56.94
2023-04-27T01:51:53.664Z,56.08
2023-04-27T01:54:59.584Z,55.43
2023-04-27T01:58:04.281Z,55.32
2023-04-27T02:01:09.740Z,55.65
2023-04-27T02:04:13.563Z,55.36
2023-04-27T02:07:18.077Z,56.38
2023-04-27T02:10:51.087Z,56.46
2023-04-27T02:13:56.213Z,56.51
2023-04-27T02:17:07.936Z,56.78
2023-04-27T02:20:13.106Z,55.95
2023-04-27T02:23:16.831Z,55.88
2023-04-27T02:26:29.239Z,56.00
2023-04-27T02:29:38.966Z,55.84
2023-04-27T02:32:44.769Z,55.43
2023-04-27T02:35:51.697Z,55.08
2023-04-27T02:38:55.785Z,55.62
2023-04-27T02:42:01.597Z,54.94
2023-04-27T02:45:24.712Z,55.04
2023-04-27T02:48:28.541Z,55.78
2023-04-27T02:51:38.171Z,56.42
2023-04-27T02:54:42.059Z,56.14
2023-04-27T02:57:47.625Z,55.78
2023-04-27T03:00:56.217Z,55.75
2023-04-27T03:04:00.593Z,55.84
2023-04-27T03:07:04.805Z,55.51
2023-04-27T03:10:34.471Z,56.73
2023-04-27T03:13:42.639Z,55.89
2023-04-27T03:16:47.025Z,55.30
2023-04-27T03:19:50.673Z,55.74
2023-04-27T03:22:54.934Z,56.26
2023-04-27T03:25:58.462Z,55.88
2023-04-27T03:29:03.950Z,56.55
2023-04-27T03:32:07.913Z,55.90
2023-04-27T03:35:12.568Z,56.38
2023-04-27T03:38:16.205Z,57.18
2023-04-27T03:41:20.532Z,56.51
2023-04-27T03:44:25.583Z,56.77
2023-04-27T03:47:29.815Z,56.65
2023-04-27T03:50:33.996Z,56.32
2023-04-27T03:53:38.607Z,55.82
2023-04-27T03:56:44.553Z,55.97
2023-04-27T03:59:50.509Z,55.42
2023-04-27T04:02:54.400Z,56.08
2023-04-27T04:05:58.939Z,56.21
2023-04-27T04:09:03.601Z,56.42
2023-04-27T04:12:09.026Z,56.15
2023-04-27T04:15:14.971Z,56.47
2023-04-27T04:18:20.040Z,57.44
2023-04-27T04:21:24.410Z,57.56
2023-04-27T04:24:28.688Z,57.42
2023-04-27T04:27:34.049Z,56.55
2023-04-27T04:30:39.813Z,56.15
2023-04-27T04:33:43.705Z,56.43
2023-04-27T04:36:47.943Z,56.66
2023-04-27T04:39:51.740Z,55.90
2023-04-27T04:42:56.453Z,55.86
2023-04-27T04:46:01.750Z,55.96
2023-04-27T04:49:06.320Z,54.96
2023-04-27T04:52:10.678Z,55.07
2023-04-27T04:55:15.411Z,54.70
2023-04-27T04:58:19.127Z,53.93
2023-04-27T05:01:26.568Z,54.12
2023-04-27T05:04:31.115Z,53.41
2023-04-27T05:07:35.832Z,53.06
2023-04-27T05:10:39.473Z,53.04
2023-04-27T05:13:44.044Z,52.91
2023-04-27T05:16:51.755Z,53.42
2023-04-27T05:19:55.798Z,53.36
2023-04-27T05:22:59.504Z,53.88
2023-04-27T05:26:12.183Z,54.42
2023-04-27T05:29:16.135Z,54.99
2023-04-27T05:32:22.330Z,54.82
2023-04-27T05:35:26.121Z,53.49
2023-04-27T05:38:30.277Z,52.65
2023-04-27T05:41:34.225Z,50.54
2023-04-27T05:44:40.117Z,50.88
2023-04-27T05:47:45.252Z,50.77
2023-04-27T05:50:49.371Z,51.08
2023-04-27T05:53:55.369Z,50.46
2023-04-27T05:56:59.470Z,49.76
2023-04-27T06:00:07.488Z,48.57
2023-04-27T06:03:18.028Z,48.83
2023-04-27T06:06:21.691Z,49.41
2023-04-27T06:09:25.683Z,50.71
2023-04-27T06:12:29.430Z,48.71
2023-04-27T06:15:33.458Z,47.76
2023-04-27T06:18:38.597Z,46.99
2023-04-27T06:21:42.560Z,47.21
2023-04-27T06:24:46.901Z,47.18
2023-04-27T06:27:51.900Z,47.20
2023-04-27T06:30:55.901Z,45.11
2023-04-27T06:34:01.531Z,45.95
2023-04-27T06:37:05.234Z,44.84
2023-04-27T06:40:09.881Z,40.22
2023-04-27T06:43:13.927Z,38.56
2023-04-27T06:46:18.061Z,36.15
2023-04-27T06:49:23.497Z,34.22
2023-04-27T06:52:27.579Z,33.09
2023-04-27T06:55:31.094Z,31.11
2023-04-27T06:58:34.905Z,30.77
2023-04-27T07:01:39.951Z,31.46
2023-04-27T07:04:45.998Z,29.14
2023-04-27T07:07:49.814Z,30.25
2023-04-27T07:10:53.939Z,28.63
2023-04-27T07:13:57.590Z,27.09
2023-04-27T07:17:01.619Z,26.64
2023-04-27T07:20:08.998Z,25.69
2023-04-27T07:23:13.278Z,26.39
2023-04-27T07:26:17.036Z,24.90
2023-04-27T07:29:26.980Z,24.63
2023-04-27T07:32:31.249Z,25.47
2023-04-27T07:35:37.149Z,24.12
2023-04-27T07:38:44.790Z,23.90
2023-04-27T07:41:50.195Z,24.76
2023-04-27T07:44:54.417Z,22.43
2023-04-27T07:48:00.405Z,22.83
2023-04-27T07:51:05.658Z,23.34
2023-04-27T07:54:09.671Z,24.32
2023-04-27T07:57:13.268Z,22.91
2023-04-27T08:00:17.894Z,22.73
2023-04-27T08:03:27.185Z,22.17
2023-04-27T08:06:33.354Z,22.95
2023-04-27T08:09:37.818Z,25.22
2023-04-27T08:12:41.838Z,27.71
2023-04-27T08:15:46.498Z,28.27
2023-04-27T08:18:51.576Z,30.01
2023-04-27T08:21:56.632Z,30.13
2023-04-27T08:25:01.811Z,29.53
2023-04-27T08:28:05.711Z,33.45
2023-04-27T08:31:09.468Z,31.08
2023-04-27T08:34:13.096Z,31.33
2023-04-27T08:37:18.827Z,32.39
2023-04-27T08:40:24.931Z,32.17
2023-04-27T08:43:33.734Z,34.72
2023-04-27T08:46:39.783Z,31.40
2023-04-27T08:49:44.177Z,34.36
2023-04-27T08:52:50.793Z,33.54
2023-04-27T08:55:56.429Z,33.13
2023-04-27T08:59:02.944Z,33.30
2023-04-27T09:02:08.177Z,35.37
2023-04-27T09:05:18.749Z,32.02
2023-04-27T09:08:24.065Z,32.75
2023-04-27T09:11:32.442Z,34.37
2023-04-27T09:14:37.096Z,34.02
2023-04-27T09:17:40.911Z,33.44
2023-04-27T09:20:46.798Z,33.07
2023-04-27T09:23:52.824Z,35.38
2023-04-27T09:26:59.048Z,34.08
2023-04-27T09:30:14.594Z,33.54
2023-04-27T09:33:24.639Z,33.34
2023-04-27T09:37:42.666Z,33.86
2023-04-27T09:40:48.817Z,33.47
2023-04-27T09:43:56.343Z,34.12
2023-04-27T09:47:02.725Z,32.65
2023-04-27T09:50:08.363Z,33.82
2023-04-27T09:53:15.867Z,34.56
2023-04-27T09:56:32.718Z,34.45
2023-04-27T10:00:06.918Z,35.04
2023-04-27T10:03:25.254Z,35.93
2023-04-27T10:07:00.466Z,34.67
2023-04-27T10:10:05.260Z,35.18
2023-04-27T10:13:21.810Z,34.49
2023-04-27T10:16:25.714Z,34.29
2023-04-27T10:19:29.939Z,35.82
2023-04-27T10:22:43.144Z,33.25
2023-04-27T10:25:48.857Z,33.34
2023-04-27T10:29:07.554Z,33.41
2023-04-27T10:32:12.660Z,33.77
2023-04-27T10:35:16.505Z,33.84
2023-04-27T10:38:23.543Z,33.65
2023-04-27T10:41:35.700Z,34.24
2023-04-27T10:44:41.354Z,34.50
2023-04-27T10:47:47.079Z,33.26
2023-04-27T10:50:53.449Z,34.43
2023-04-27T10:53:57.493Z,35.51
2023-04-27T10:57:06.909Z,34.10
2023-04-27T11:00:16.550Z,34.14
2023-04-27T11:03:24.102Z,33.84
2023-04-27T11:06:30.471Z,33.91
2023-04-27T11:09:34.414Z,33.25
2023-04-27T11:12:38.225Z,32.63
2023-04-27T11:15:51.419Z,32.55
2023-04-27T11:18:57.397Z,33.87
2023-04-27T11:22:06.374Z,33.36
2023-04-27T11:25:10.704Z,33.78
2023-04-27T11:28:19.283Z,32.92
2023-04-27T11:31:25.068Z,33.29
2023-04-27T11:34:34.369Z,33.88
2023-04-27T11:37:38.470Z,33.46
2023-04-27T11:40:42.838Z,34.31
2023-04-27T11:43:49.823Z,33.78
2023-04-27T11:46:55.758Z,33.65
2023-04-27T11:50:01.020Z,32.34
2023-04-27T11:53:05.041Z,33.56
2023-04-27T11:56:11.333Z,34.37
2023-04-27T11:59:23.062Z,34.16
2023-04-27T12:02:29.370Z,32.73
2023-04-27T12:05:33.824Z,32.97
2023-04-27T12:08:38.166Z,32.93
2023-04-27T12:11:42.162Z,32.93
2023-04-27T12:14:46.573Z,33.79
2023-04-27T12:17:52.496Z,32.52
2023-04-27T12:20:56.078Z,33.65
2023-04-27T12:24:00.282Z,32.88
2023-04-27T12:27:04.596Z,32.69
2023-04-27T12:30:09.520Z,33.39
2023-04-27T12:33:16.851Z,33.33
2023-04-27T12:36:22.556Z,33.22
2023-04-27T12:39:26.177Z,33.16
2023-04-27T12:42:30.288Z,33.95
2023-04-27T12:45:33.976Z,35.62
2023-04-27T12:48:39.509Z,34.21
2023-04-27T12:51:43.752Z,32.07
2023-04-27T12:54:47.884Z,33.03
2023-04-27T12:57:51.625Z,33.35
2023-04-27T13:00:57.777Z,33.73
2023-04-27T13:04:05.778Z,32.58
2023-04-27T13:07:10.752Z,32.50
2023-04-27T13:10:14.518Z,32.54
2023-04-27T13:13:19.014Z,32.03
2023-04-27T13:16:25.548Z,33.18
2023-04-27T13:19:33.341Z,33.32
2023-04-27T13:22:37.308Z,34.84
2023-04-27T13:25:42.230Z,33.20
2023-04-27T13:28:46.403Z,33.38
2023-04-27T13:31:50.414Z,32.45
2023-04-27T13:34:56.400Z,33.41
2023-04-27T13:38:00.967Z,33.39
2023-04-27T13:41:06.331Z,32.94
2023-04-27T13:44:09.871Z,33.16
2023-04-27T13:47:14.126Z,33.29
2023-04-27T13:50:19.426Z,33.80
2023-04-27T13:53:26.006Z,34.39
2023-04-27T13:56:29.725Z,34.66
2023-04-27T13:59:33.622Z,34.88
2023-04-27T14:02:37.214Z,34.93
2023-04-27T14:05:42.531Z,34.45
2023-04-27T14:08:46.289Z,34.26
2023-04-27T14:11:56.148Z,34.79
2023-04-27T14:15:00.355Z,34.92
2023-04-27T14:18:06.202Z,35.41
2023-04-27T14:21:11.338Z,33.88
2023-04-27T14:24:16.149Z,34.44
2023-04-27T14:27:20.118Z,34.88
2023-04-27T14:30:26.846Z,33.62
2023-04-27T14:33:30.561Z,34.26
2023-04-27T14:36:36.632Z,33.12
2023-04-27T14:39:45.360Z,33.42
2023-04-27T14:42:49.476Z,33.49
2023-04-27T14:45:57.306Z,33.51
2023-04-27T14:49:10.365Z,32.59
2023-04-27T14:52:15.590Z,33.09
2023-04-27T14:55:19.801Z,32.50
2023-04-27T14:58:24.210Z,32.42
2023-04-27T15:01:28.357Z,32.96
2023-04-27T15:04:32.557Z,32.54
2023-04-27T15:07:40.372Z,32.24
2023-04-27T15:10:44.046Z,32.57
2023-04-27T15:13:49.520Z,33.24
2023-04-27T15:16:53.165Z,33.56
2023-04-27T15:19:58.316Z,33.23
2023-04-27T15:23:05.556Z,33.63
2023-04-27T15:26:10.061Z,33.67
2023-04-27T15:29:13.777Z,34.08
2023-04-27T15:32:21.213Z,33.97
2023-04-27T15:35:25.486Z,33.88
2023-04-27T15:38:30.734Z,32.81
2023-04-27T15:41:34.254Z,33.55
2023-04-27T15:44:57.348Z,34.42
2023-04-27T15:48:06.541Z,34.18
2023-04-27T15:51:12.422Z,34.42
2023-04-27T15:54:18.585Z,34.66
2023-04-27T15:57:26.720Z,34.72
2023-04-27T16:00:31.877Z,34.70
2023-04-27T16:03:37.844Z,34.29
2023-04-27T16:06:41.804Z,34.38
2023-04-27T16:09:47.241Z,34.82
2023-04-27T16:12:51.031Z,34.11
2023-04-27T16:15:55.314Z,34.19
2023-04-27T16:19:00.570Z,34.03
2023-04-27T16:22:05.005Z,34.11
2023-04-27T16:25:11.685Z,34.41
2023-04-27T16:28:18.148Z,34.44
2023-04-27T16:31:22.099Z,34.35
2023-04-27T16:34:26.297Z,34.26
2023-04-27T16:37:29.812Z,34.96
2023-04-27T16:40:35.545Z,34.81
2023-04-27T16:43:39.108Z,34.82
2023-04-27T16:46:44.211Z,34.83
2023-04-27T16:49:48.614Z,34.70
2023-04-27T16:52:53.541Z,35.11
2023-04-27T16:56:01.612Z,35.14
2023-04-27T16:59:06.209Z,35.34
2023-04-27T17:02:22.959Z,35.26
2023-04-27T17:05:29.039Z,35.17
2023-04-27T17:08:34.312Z,35.26
2023-04-27T17:11:40.413Z,35.42
2023-04-27T17:14:43.983Z,35.29
2023-04-27T17:17:48.324Z,35.58
2023-04-27T17:20:52.134Z,35.61
2023-04-27T17:23:55.960Z,35.79
2023-04-27T17:27:04.308Z,35.58
2023-04-27T17:30:10.550Z,35.72
2023-04-27T17:33:15.879Z,36.25
2023-04-27T17:36:19.457Z,36.11
2023-04-27T17:39:25.188Z,36.45
2023-04-27T17:42:31.134Z,37.48
2023-04-27T17:45:35.726Z,37.51
2023-04-27T17:48:40.903Z,37.88
2023-04-27T17:51:46.732Z,38.29
2023-04-27T17:59:53.366Z,39.17
2023-04-27T18:03:07.315Z,39.61
2023-04-27T18:10:33.233Z,41.00
2023-04-27T18:13:36.942Z,41.23
2023-04-27T18:16:43.260Z,42.72
2023-04-27T18:20:04.367Z,43.04
2023-04-27T18:23:12.028Z,42.61
2023-04-27T18:26:22.159Z,43.42
2023-04-27T18:29:26.623Z,43.78
2023-04-27T18:32:31.282Z,43.67
2023-04-27T18:36:09.890Z,44.13
2023-04-27T18:39:18.533Z,44.62
2023-04-27T18:42:22.860Z,44.91
2023-04-27T18:45:26.759Z,45.00
2023-04-27T18:48:30.408Z,45.82
2023-04-27T18:51:34.559Z,45.66
2023-04-27T18:54:40.013Z,45.59
2023-04-27T18:57:44.678Z,46.48
2023-04-27T19:00:54.653Z,46.95
2023-04-27T19:04:03.192Z,47.25
2023-04-27T19:07:07.751Z,46.82
2023-04-27T19:10:14.752Z,47.19
2023-04-27T19:13:19.964Z,46.92
2023-04-27T19:16:24.925Z,47.64
2023-04-27T19:19:29.097Z,47.45
2023-04-27T19:22:36.831Z,47.26
2023-04-27T19:25:45.097Z,48.29
2023-04-27T19:28:59.490Z,48.39
2023-04-27T19:32:06.387Z,48.41
2023-04-27T19:35:12.548Z,48.56
2023-04-27T19:38:27.693Z,48.86
2023-04-27T19:46:18.690Z,48.98
2023-04-27T19:49:32.802Z,48.66
2023-04-27T19:52:37.769Z,48.63
2023-04-27T19:55:42.412Z,49.25
2023-04-27T19:58:48.839Z,48.93
2023-04-27T20:02:04.548Z,48.90
2023-04-27T20:05:11.604Z,48.34
2023-04-27T20:08:16.581Z,49.29
2023-04-27T20:11:21.285Z,49.21
2023-04-27T20:14:29.206Z,48.91
2023-04-27T20:17:34.012Z,49.12
2023-04-27T20:20:38.959Z,49.61
2023-04-27T20:23:42.995Z,49.69
2023-04-27T20:26:46.773Z,49.47
2023-04-27T20:29:52.592Z,49.30
2023-04-27T20:32:57.615Z,49.51
2023-04-27T20:36:14.306Z,49.33
2023-04-27T20:39:25.156Z,49.85
2023-04-27T20:42:32.542Z,49.58
2023-04-27T20:45:38.357Z,50.14
2023-04-27T20:49:34.430Z,50.06
2023-04-27T20:52:43.078Z,50.09
2023-04-27T20:55:48.361Z,50.21
2023-04-27T20:59:21.556Z,50.66
2023-04-27T21:05:49.275Z,51.22
2023-04-27T21:09:13.226Z,51.12
2023-04-27T21:12:20.419Z,50.56
2023-04-27T21:15:37.880Z,51.57
2023-04-27T21:18:51.840Z,51.52
2023-04-27T21:21:56.328Z,51.42
2023-04-27T21:25:09.095Z,51.61
2023-04-27T21:32:12.238Z,51.69
2023-04-27T21:35:16.136Z,51.62
2023-04-27T21:38:19.702Z,52.75
2023-04-27T21:41:23.505Z,52.08
2023-04-27T21:44:29.502Z,51.39
2023-04-27T21:47:36.059Z,51.60
2023-04-27T21:50:42.213Z,51.92
2023-04-27T21:53:46.113Z,52.16
2023-04-27T21:56:50.201Z,51.43
2023-04-27T21:59:54.514Z,52.25
2023-04-27T22:02:59.705Z,52.09
2023-04-27T22:06:04.596Z,52.64
2023-04-27T22:09:08.841Z,52.21
2023-04-27T22:12:12.906Z,52.06
2023-04-27T22:15:16.568Z,51.99
2023-04-27T22:18:22.239Z,53.09
2023-04-27T22:21:26.151Z,52.12
2023-04-27T22:24:30.591Z,52.11
2023-04-27T22:27:42.109Z,52.33
2023-04-27T22:30:48.471Z,52.94
2023-04-27T22:33:53.800Z,52.52
2023-04-27T22:36:57.802Z,52.02
2023-04-27T22:40:02.304Z,52.51
2023-04-27T22:43:07.033Z,52.65
2023-04-27T22:46:10.733Z,52.05
2023-04-27T22:49:17.454Z,52.31
2023-04-27T22:53:35.588Z,52.18
2023-04-27T22:56:39.835Z,52.12
2023-04-27T22:59:43.533Z,52.41
2023-04-27T23:02:47.931Z,53.11
2023-04-27T23:05:53.742Z,52.11
2023-04-27T23:08:58.431Z,51.59
2023-04-27T23:12:02.186Z,52.54
2023-04-27T23:15:06.801Z,52.20
2023-04-27T23:18:10.488Z,53.43
2023-04-27T23:21:16.459Z,53.25
2023-04-27T23:24:20.254Z,52.57
2023-04-27T23:27:25.187Z,52.41
2023-04-27T23:30:29.964Z,52.54
2023-04-27T23:33:35.137Z,54.05
2023-04-27T23:36:40.249Z,52.70
2023-04-27T23:39:44.707Z,53.08
2023-04-27T23:42:51.484Z,52.85
2023-04-27T23:45:56.288Z,52.62
2023-04-27T23:49:00.039Z,51.85
2023-04-27T23:52:05.848Z,52.07
2023-04-27T23:55:32.618Z,51.74
2023-04-27T23:58:46.690Z,53.37
